Weatherby Lake, Missouri
Current Conditions -  °F | °C
As of 7:53 AM on Thursday 23 Oct 2014 (Local Time) from KMCI Reporting Station
Haze Haze  
Wind Chill: 56°   Ceiling: 7500
Heat Index: 56°   Visibility: 5mi
Dew Point: 55°   Wind: 6mph
Humidity: 97%   Direction: 170°S
Pressure: 30.07"   Gusts: NA
Location:  39.2806°N, 94.7299°W
Report Text: KMCI 231253Z 17005KT 5SM BR FEW030 BKN075 BKN130 13/13 A3007 RMK AO2 RAB1157E16 SLP178 P0001 T01330128
Loading
Personal Weather Stations






























Interactive Weather Map
Tropical Storm Tracking
New forecast layout! Learn more

10-Day Weather Forecast

Advertisements
Track Severe Weather on mobile